Flight Track Log - Related Links

Times and Time Zones

All times are in EDT time to prevent confusion due to time zone crossing. See the TCF3494 flight status page for this flight to view local times or setup timezone preferences in your user account.

Time Position Orientation Groundspeed Altitude Reporting Facility
EDT Latitude Longitude Course Direction KTS MPH feet Rate Location/Type
Fri 08:15:09 PM 40.7500 -73.8167 299° West 156 180 2,000  Level New York TRACON
Fri 08:16:09 PM 40.8000 -73.7500 45° Northeast 290 334 4,100 2,476 Climbing New York TRACON
Fri 08:17:00 PM 40.9340 -74.2345 304° West  Level FlightAware Approximate
Fri 08:17:15 PM 40.8667 -73.7833 339° North 277 319 7,200  Level New York TRACON
Fri 08:18:00 PM 40.9818 -74.3303 304° West  Level FlightAware Approximate
Fri 08:18:09 PM 40.9333 -73.8500 323° Northwest 287 330 10,200  Level New York TRACON
Fri 08:19:00 PM 41.0240 -74.4307 299° West  Level FlightAware Approximate
Fri 08:19:09 PM 40.9833 -73.9333 308° West 305 351 12,800  Level New York TRACON
Fri 08:20:00 PM 41.0659 -74.5314 299° West  Level FlightAware Approximate
Fri 08:20:09 PM 41.0500 -74.0167 317° Northwest 327 376 15,500  Level New York TRACON
Fri 08:21:00 PM 41.1250 -74.0269 354° North 378 435 15,900 214 Climbing New York Center
Fri 08:22:01 PM 41.2369 -74.0489 352° North 383 441 15,900  Level New York Center
Fri 08:22:59 PM 41.3139 -74.1300 322° Northwest 348 400 15,900  Level New York Center
Fri 08:23:58 PM 41.3761 -74.2106 316° Northwest 343 395 15,900  Level New York Center
Fri 08:24:58 PM 41.3850 -74.3269 276° West 300 345 15,900 78 Level New York Center
Fri 08:25:15 PM 41.3833 -74.3500 265° West 284 327 16,000 78 Climbing New York TRACON
Fri 08:26:15 PM 41.3833 -74.4500 270° West 281 323 16,000 -58 Level New York TRACON
Fri 08:26:58 PM 41.3444 -74.4989 223° Southwest 283 326 15,900  Descending New York Center
Fri 08:28:09 PM 41.2667 -74.5500 206° Southwest 247 284 16,000 46 Climbing New York TRACON
Fri 08:29:09 PM 41.2167 -74.5833 207° Southwest 250 288 16,000  Level New York TRACON
Fri 08:30:09 PM 41.1500 -74.6333 209° Southwest 250 288 16,000  Level New York TRACON
Fri 08:31:09 PM 41.1000 -74.6000 153° Southeast 298 343 16,000  Level New York TRACON
Fri 08:32:09 PM 41.1000 -74.4667 90° East 392 451 16,000  Level New York TRACON
Fri 08:33:09 PM 41.1333 -74.3167 74° East 397 457 16,000 200 Level New York TRACON
Fri 08:34:09 PM 41.1500 -74.1833 81° East 395 455 16,400 500 Climbing New York TRACON
Fri 08:35:09 PM 41.1833 -74.0333 74° East 398 458 17,000 300 Climbing New York TRACON
Fri 08:36:09 PM 41.2000 -73.8833 82° East 401 461 17,000  Level New York TRACON
Fri 08:37:15 PM 41.2167 -73.7333 82° East 399 459 17,000  Level New York TRACON
Fri 08:38:15 PM 41.2500 -73.6000 72° East 400 460 17,000  Level New York TRACON
Fri 08:39:15 PM 41.2167 -73.4833 111° Southeast 341 392 17,000  Level New York TRACON
Fri 08:40:15 PM 41.1500 -73.3833 132° Southeast 332 382 17,000  Level New York TRACON
Fri 08:41:21 PM 41.1167 -73.2667 111° Southeast 395 455 17,000  Level New York TRACON
Fri 08:42:21 PM 41.2167 -73.2000 27° Northeast 399 459 17,000  Level New York TRACON
Fri 08:43:01 PM 41.2533 -73.2492 315° West 334 384 17,000  Level Boston Center
Fri 08:44:01 PM 41.2608 -73.3569 275° West 254 292 17,000  Level Boston Center
Fri 08:44:21 PM 41.2667 -73.3833 286° West 289 333 17,000  Level New York TRACON
Fri 08:45:15 PM 41.2667 -73.4833 270° West 293 337 17,000  Level New York TRACON
Fri 08:46:21 PM 41.2667 -73.5833 270° West 295 339 17,000  Level New York TRACON
Fri 08:47:22 PM 41.1833 -73.5833 180° South 275 316 17,000  Level New York TRACON
Fri 08:48:21 PM 41.1000 -73.5333 156° South 341 392 17,000  Level New York TRACON
Fri 08:49:16 PM 41.1167 -73.4000 81° East 430 495 17,000  Level New York TRACON
Fri 08:50:16 PM 41.2167 -73.3000 37° Northeast 440 506 17,000 -57 Level New York TRACON
Fri 08:51:01 PM 41.2825 -73.2550 27° Northeast 356 410 16,900 449 Descending Boston Center
Fri 08:52:03 PM 41.4039 -73.1792 25° Northeast 405 466 17,800 1,835 Climbing Boston Center
Fri 08:53:02 PM 41.5272 -73.1361 15° North 421 484 20,600 2,521 Climbing Boston Center
Fri 08:54:02 PM 41.6272 -73.1428 357° North 418 481 22,800 1,850 Climbing Boston Center
Fri 08:55:02 PM 41.7458 -73.1636 353° North 412 474 24,300 1,537 Climbing Boston Center
Fri 08:56:03 PM 41.8686 -73.1817 354° North 430 495 25,900 1,488 Climbing Boston Center
Fri 08:57:03 PM 41.9978 -73.2000 354° North 445 512 27,300 1,250 Climbing Boston Center
Fri 08:58:03 PM 42.1267 -73.2211 353° North 457 526 28,400 1,160 Climbing Boston Center
Fri 08:59:02 PM 42.2303 -73.3150 326° Northwest 450 518 29,600 1,250 Climbing Boston Center
Fri 09:00:03 PM 42.2853 -73.4558 298° West 393 452 30,900 1,450 Climbing Boston Center
Fri 09:01:02 PM 42.3342 -73.6000 295° West 399 459 32,500 1,500 Climbing Boston Center
Fri 09:02:03 PM 42.3703 -73.7300 291° West 430 495 33,900 756 Climbing Boston Center
Fri 09:03:01 PM 42.4164 -73.8686 294° West 409 471 34,000 50 Climbing Boston Center
Fri 09:04:02 PM 42.4644 -74.0106 295° West 409 471 34,000  Level Boston Center
Fri 09:05:01 PM 42.5106 -74.1525 294° West 409 471 34,000  Level Boston Center
Fri 09:06:01 PM 42.5583 -74.2947 295° West 409 471 34,000  Level Boston Center
Fri 09:07:02 PM 42.6078 -74.4514 293° West 409 471 34,000  Level Boston Center
Fri 09:08:01 PM 42.6531 -74.5942 293° West 414 476 34,000 -51 Level Boston Center
Fri 09:09:00 PM 42.6983 -74.7314 294° West 419 482 33,900  Descending Boston Center
Fri 09:10:12 PM 42.7161 -74.8761 280° West 400 460 34,000 45 Climbing Boston Center
Fri 09:11:14 PM 42.7292 -75.0406 276° West 383 441 34,000  Level Boston Center
Fri 09:12:15 PM 42.7381 -75.1881 275° West 383 441 34,000  Level Boston Center
Fri 09:13:15 PM 42.7514 -75.3328 277° West 393 452 34,000 407 Level Boston Center
Fri 09:14:13 PM 42.7603 -75.4633 275° West 393 452 34,800 958 Climbing Boston Center
Fri 09:15:14 PM 42.7711 -75.6053 276° West 388 447 35,900 605 Climbing Boston Center
Fri 09:16:12 PM 42.7817 -75.7444 276° West 383 441 36,000 50 Climbing Boston Center
Fri 09:17:14 PM 42.7922 -75.8808 276° West 377 434 36,000  Level Boston Center
Fri 09:18:15 PM 42.8006 -76.0172 275° West 372 428 36,000  Level Boston Center
Fri 09:19:15 PM 42.8108 -76.1567 276° West 367 422 36,000  Level Boston Center
Fri 09:20:13 PM 42.8208 -76.2931 276° West 367 422 36,000  Level Boston Center
Fri 09:21:14 PM 42.8264 -76.4350 273° West 372 428 36,000  Level Boston Center
Fri 09:22:14 PM 42.8381 -76.5747 277° West 372 428 36,000  Level Boston Center
Fri 09:23:15 PM 42.8467 -76.7311 274° West 372 428 36,000  Level Boston Center
Fri 09:25:15 PM 42.8500 -77.0000 271° West 370 426 36,000  Level Toronto Center
Fri 09:26:15 PM 42.8667 -77.1333 280° West 370 426 36,000  Level Toronto Center
Fri 09:26:33 PM 42.8756 -77.2003 280° West 378 435 36,000  Level Cleveland Center
Fri 09:27:33 PM 42.8836 -77.3358 275° West 378 435 36,000  Level Cleveland Center
Fri 09:28:33 PM 42.8936 -77.4742 276° West 378 435 36,000  Level Cleveland Center
Fri 09:29:33 PM 42.8992 -77.6100 273° West 368 423 36,000  Level Cleveland Center
Fri 09:30:33 PM 42.9069 -77.7458 275° West 363 418 36,000  Level Cleveland Center
Fri 09:31:33 PM 42.9144 -77.8844 274° West 363 418 36,000  Level Cleveland Center
Fri 09:32:33 PM 42.9217 -78.0203 274° West 363 418 36,000  Level Cleveland Center
Fri 09:33:33 PM 42.9286 -78.1561 274° West 363 418 36,000  Level Cleveland Center
Fri 09:34:33 PM 42.9336 -78.2919 273° West 363 418 36,000  Level Cleveland Center
Fri 09:35:33 PM 42.9425 -78.4306 275° West 363 418 36,000  Level Cleveland Center
Fri 09:36:33 PM 42.9469 -78.5694 273° West 363 418 36,000  Level Cleveland Center
Fri 09:37:33 PM 42.9536 -78.7053 274° West 363 418 36,000  Level Cleveland Center
Fri 09:38:33 PM 42.9619 -78.8383 275° West 363 418 36,000  Level Cleveland Center
Fri 09:39:15 PM 42.9500 -78.9000 255° West 360 414 36,000  Level Toronto Center
Fri 09:40:15 PM 42.9667 -79.0333 280° West 360 414 36,000  Level Toronto Center
Fri 09:41:15 PM 42.9667 -79.1833 270° West 350 403 36,000  Level Toronto Center
Fri 09:42:15 PM 42.9667 -79.3167 270° West 350 403 36,000  Level Toronto Center
Fri 09:43:15 PM 42.9833 -79.4500 280° West 350 403 36,000  Level Toronto Center
Fri 09:44:15 PM 42.9833 -79.5833 270° West 350 403 36,000  Level Toronto Center
Fri 09:45:15 PM 42.9833 -79.7000 270° West 350 403 36,000  Level Toronto Center
Fri 09:46:15 PM 42.9833 -79.8333 270° West 350 403 36,000  Level Toronto Center
Fri 09:47:15 PM 43.0000 -79.9833 279° West 350 403 36,000  Level Toronto Center
Fri 09:48:15 PM 43.0000 -80.1167 270° West 340 391 36,000  Level Toronto Center
Fri 09:49:15 PM 43.0000 -80.2333 270° West 330 380 36,000  Level Toronto Center
Fri 09:50:15 PM 43.0167 -80.3667 280° West 340 391 36,000  Level Toronto Center
Fri 09:51:15 PM 43.0167 -80.4833 270° West 340 391 36,000  Level Toronto Center
Fri 09:52:15 PM 43.0167 -80.6167 270° West 340 391 36,000  Level Toronto Center
Fri 09:53:15 PM 43.0167 -80.7500 270° West 340 391 36,000  Level Toronto Center
Fri 09:54:15 PM 43.0167 -80.8833 270° West 350 403 36,000  Level Toronto Center
Fri 09:55:15 PM 43.0167 -81.0000 270° West 350 403 36,000  Level Toronto Center
Fri 09:56:15 PM 43.0167 -81.1333 270° West 350 403 36,000  Level Toronto Center
Fri 09:57:15 PM 43.0167 -81.2667 270° West 350 403 36,000  Level Toronto Center
Fri 09:58:15 PM 43.0167 -81.4167 270° West 350 403 36,000  Level Toronto Center
Fri 09:59:15 PM 43.0167 -81.5500 270° West 350 403 36,000  Level Toronto Center
Fri 10:00:15 PM 43.0167 -81.6833 270° West 350 403 36,000  Level Toronto Center
Fri 10:01:15 PM 43.0167 -81.8000 270° West 360 414 36,000  Level Toronto Center
Fri 10:02:15 PM 43.0000 -81.9667 262° West 360 414 36,000  Level Toronto Center
Fri 10:03:15 PM 43.0000 -82.1000 270° West 370 426 36,000  Level Toronto Center
Fri 10:04:15 PM 43.0000 -82.2333 270° West 370 426 36,000  Level Toronto Center
Fri 10:05:15 PM 43.0000 -82.3667 270° West 370 426 36,000  Level Toronto Center
Fri 10:06:15 PM 43.0000 -82.5000 270° West 370 426 36,000  Level Toronto Center
Fri 10:07:15 PM 42.9833 -82.6667 262° West 380 437 36,000  Level Toronto Center
Fri 10:07:33 PM 43.0011 -82.7094 300° West 374 430 36,000  Level Cleveland Center
Fri 10:08:32 PM 42.9964 -82.8542 267° West 380 437 36,000  Level Cleveland Center
Fri 10:09:32 PM 42.9936 -82.9931 268° West 380 437 36,000  Level Cleveland Center
Fri 10:10:32 PM 42.9883 -83.1347 267° West 380 437 36,000  Level Cleveland Center
Fri 10:11:32 PM 42.9831 -83.2736 267° West 380 437 36,000  Level Cleveland Center
Fri 10:12:33 PM 42.9778 -83.4153 267° West 380 437 36,000  Level Cleveland Center
Fri 10:13:33 PM 42.9719 -83.5597 267° West 380 437 36,000  Level Cleveland Center
Fri 10:14:33 PM 42.9681 -83.7072 268° West 386 444 36,000  Level Cleveland Center
Fri 10:15:33 PM 42.9558 -83.8483 263° West 386 444 36,000  Level Cleveland Center
Fri 10:16:33 PM 42.9414 -83.9867 262° West 386 444 36,000  Level Cleveland Center
Fri 10:17:32 PM 42.9269 -84.1250 262° West 381 438 36,000 -550 Level Cleveland Center
Fri 10:18:33 PM 42.9142 -84.2658 263° West 381 438 34,900 -1,140 Descending Cleveland Center
Fri 10:19:33 PM 42.9061 -84.3875 265° West 381 438 33,700 -1,263 Descending Cleveland Center
Fri 10:20:08 PM 42.8961 -84.4664 260° West 376 433 32,900 -1,063 Descending Chicago Center
Fri 10:21:09 PM 42.8811 -84.6108 262° West 384 442 32,000 -443 Descending Chicago Center
Fri 10:22:10 PM 42.8672 -84.7564 263° West 388 447 32,000  Level Chicago Center
Fri 10:23:11 PM 42.8481 -84.9317 262° West 390 449 32,000  Level Chicago Center
Fri 10:24:12 PM 42.8317 -85.0806 262° West 396 456 32,000 -443 Level Chicago Center
Fri 10:25:13 PM 42.8161 -85.2267 262° West 393 452 31,100 -1,180 Descending Chicago Center
Fri 10:26:14 PM 42.8014 -85.3661 262° West 377 434 29,600 -1,426 Descending Chicago Center
Fri 10:27:15 PM 42.7856 -85.5042 261° West 370 426 28,200 -1,426 Descending Chicago Center
Fri 10:28:16 PM 42.7614 -85.6389 256° West 365 420 26,700 -1,377 Descending Chicago Center
Fri 10:29:17 PM 42.7383 -85.7697 257° West 357 411 25,400 -1,328 Descending Chicago Center
Fri 10:30:18 PM 42.7153 -85.8975 256° West 348 400 24,000 -1,377 Descending Chicago Center
Fri 10:31:19 PM 42.6914 -86.0256 256° West 347 399 22,600 -1,328 Descending Chicago Center
Fri 10:32:20 PM 42.6681 -86.1514 256° West 344 396 21,300 -1,279 Descending Chicago Center
Fri 10:33:21 PM 42.6456 -86.2731 256° West 334 384 20,000 -1,317 Descending Chicago Center
Fri 10:34:23 PM 42.6225 -86.3886 255° West 321 369 18,600 -1,279 Descending Chicago Center
Fri 10:35:23 PM 42.6022 -86.5036 257° West 315 362 17,400 -1,140 Descending Chicago Center
Fri 10:36:24 PM 42.5806 -86.6169 255° West 311 358 16,300 -1,131 Descending Chicago Center
Fri 10:37:25 PM 42.5603 -86.7303 256° West 309 356 15,100 -1,131 Descending Chicago Center
Fri 10:38:26 PM 42.5308 -86.8353 249° West 300 345 14,000 -1,180 Descending Chicago Center
Fri 10:39:27 PM 42.4975 -86.9589 250° West 293 337 12,700 -1,122 Descending Chicago Center
Fri 10:40:29 PM 42.4706 -87.0572 250° West 281 323 11,700 -976 Descending Chicago Center
Fri 10:41:30 PM 42.4439 -87.1536 249° West 275 316 10,700 -984 Descending Chicago Center
Fri 10:42:31 PM 42.4186 -87.2469 250° West 266 306 9,700 -934 Descending Chicago Center
Fri 10:43:32 PM 42.3928 -87.3367 249° West 257 296 8,800 -1,131 Descending Chicago Center
Fri 10:44:33 PM 42.3672 -87.4306 250° West 253 291 7,400 -1,377 Descending Chicago Center
Fri 10:45:34 PM 42.2989 -87.4672 202° Southwest 278 320 6,000 -689 Descending Chicago Center
Fri 10:46:35 PM 42.2219 -87.4700 182° South 278 320 6,000 -197 Level Chicago Center
Fri 10:47:36 PM 42.1547 -87.4697 180° South 246 283 5,600 -686 Descending Chicago Center
Fri 10:48:20 PM 42.1000 -87.4667 178° South 235 270 4,800 -914 Descending Chicago TRACON
Fri 10:49:21 PM 42.0500 -87.5000 206° Southwest 212 244 4,000 -421 Descending Chicago TRACON
Fri 10:50:14 PM 42.0167 -87.5500 228° Southwest 204 235 4,000  Level Chicago TRACON
Fri 10:51:09 PM 41.9833 -87.6000 228° Southwest 204 235 4,000 -99 Level Chicago TRACON
Fri 10:52:15 PM 41.9833 -87.6833 270° West 182 209 3,800 -500 Descending Chicago TRACON
Fri 10:53:21 PM 41.9833 -87.7500 270° West 151 174 2,900 -818 Descending Chicago TRACON

Login

Don't have an account? Register now (free) for customized features, flight alerts, and more!